Sommer S — WDG3830 — position and weather

sailwx.info

Track history (hours):
 
Tides and Currents Weather Stations Pressure Air Temp Water Temp Dewpoint Dewpoint Depression Visibility Wind Speed Wind Dir Waves Ship Positions

Sommer S

Owner: Shaver Transportation Company, Portland, OR. More information available from US FCC via Universal Licensing System and Coast Guard Vessel Documentation Center.

Last reported at 2016-Feb-10 00:33 UTC. Time now 2016-Feb-10 00:46 UTC.
Position N 46°06' W 122°57'.

Length 25 m.

Type: Tug. MMSI: 367530080.

Date/timePositionNaut miles runAvg speedWind from/ knotsBaromVisibWave heightAir tempDewpointWater temp
2016-Feb-10 00:33N 46°06' W 122°57'0 0.0
2016-Feb-09 23:33N 46°06' W 122°57'0 0.0
2016-Feb-09 22:33N 46°06' W 122°57'0 0.0
2016-Feb-09 21:33N 46°06' W 122°57'1 1.4
2016-Feb-09 20:33N 46°07' W 122°59'1 0.5
2016-Feb-09 19:33N 46°07' W 122°59'1 1.5
2016-Feb-09 18:32N 46°06' W 122°58'2 1.6
2016-Feb-09 17:33N 46°05' W 122°56'1 1.2
2016-Feb-09 16:33N 46°05' W 122°54'7 6.8
2016-Feb-09 15:33N 45°59' W 122°50'0 0.0
2016-Feb-09 14:33N 45°59' W 122°50'0 0.2
2016-Feb-09 13:33N 45°59' W 122°50'4 4.0
2016-Feb-09 12:33N 45°55' W 122°48'1212.1
2016-Feb-09 11:33N 45°43' W 122°46'6 6.2
2016-Feb-09 10:33N 45°38' W 122°42'2 2.2
2016-Feb-09 09:33N 45°39' W 122°45'0 0.0
2016-Feb-09 08:33N 45°39' W 122°45'0 0.0
2016-Feb-09 07:33N 45°39' W 122°45'0 0.0
2016-Feb-09 06:33N 45°39' W 122°45'0 0.0
2016-Feb-09 05:33N 45°39' W 122°45'0 0.0
2016-Feb-09 04:31N 45°39' W 122°45'0 0.0
2016-Feb-09 03:33N 45°39' W 122°45'2 2.0
2016-Feb-09 02:33N 45°38' W 122°42'0 0.1
2016-Feb-09 01:33N 45°38' W 122°42'1 1.3
2016-Feb-09 00:33N 45°39' W 122°44'0 0.2
2016-Feb-08 23:33N 45°38' W 122°44'2 1.6
2016-Feb-08 22:33N 45°39' W 122°45'4 3.6
2016-Feb-08 21:33N 45°36' W 122°46'3 2.7
2016-Feb-08 20:32N 45°34' W 122°44'0 0.0
2016-Feb-08 19:33N 45°34' W 122°44'0 0.0
2016-Feb-08 18:33N 45°34' W 122°44'0 0.4
2016-Feb-08 17:33N 45°34' W 122°43'0 0.4
2016-Feb-08 16:33N 45°34' W 122°43'3 2.8
2016-Feb-08 15:33N 45°32' W 122°40'3 3.0
2016-Feb-08 14:33N 45°34' W 122°44'3 3.1
2016-Feb-08 13:33N 45°36' W 122°47'1110.7
2016-Feb-08 12:33N 45°47' W 122°46'1110.9
2016-Feb-08 11:33N 45°57' W 122°49'5 4.8
2016-Feb-08 10:33N 46°02' W 122°52'0 0.3
2016-Feb-08 09:33N 46°02' W 122°52'0 0.5
2016-Feb-08 08:33N 46°01' W 122°52'1 1.5
2016-Feb-08 07:33N 46°03' W 122°53'0 0.0
2016-Feb-08 06:33N 46°03' W 122°53'4 4.0
2016-Feb-08 05:33N 45°59' W 122°50'0 0.1
2016-Feb-08 04:33N 45°59' W 122°50'0 0.0
2016-Feb-08 03:33N 45°59' W 122°50'0 0.0
2016-Feb-08 02:33N 45°59' W 122°50'0 0.0
2016-Feb-08 01:33N 45°59' W 122°50'0 0.0
2016-Feb-08 00:33N 45°59' W 122°50'0 0.0
2016-Feb-07 23:33N 45°59' W 122°50'0 0.0
2016-Feb-07 22:33N 45°59' W 122°50'0 0.0
2016-Feb-07 21:32N 45°59' W 122°50'0 0.0
2016-Feb-07 20:33N 45°59' W 122°50'0 0.0
2016-Feb-07 19:33N 45°59' W 122°50'0 0.0
2016-Feb-07 18:33N 45°59' W 122°50'0 0.0
2016-Feb-07 17:33N 45°59' W 122°50'0 0.2
2016-Feb-07 16:33N 45°59' W 122°50'0 0.1
2016-Feb-07 15:33N 45°59' W 122°50'0 0.0
2016-Feb-07 14:33N 45°59' W 122°50'0 0.0
2016-Feb-07 13:33N 45°59' W 122°50'0 0.0
2016-Feb-07 12:33N 45°59' W 122°50'0 0.0
2016-Feb-07 11:33N 45°59' W 122°50'0 0.0
2016-Feb-07 10:33N 45°59' W 122°50'0 0.0
2016-Feb-07 09:33N 45°59' W 122°50'0 0.0
2016-Feb-07 08:33N 45°59' W 122°50'0 0.0
2016-Feb-07 07:33N 45°59' W 122°50'0 0.0
2016-Feb-07 06:33N 45°59' W 122°50'9 9.4
2016-Feb-07 05:33N 45°50' W 122°48'1111.0
2016-Feb-07 04:33N 45°39' W 122°45'3 2.9
2016-Feb-07 03:33N 45°38' W 122°42'2 1.5
2016-Feb-07 02:33N 45°38' W 122°44'0 0.0
2016-Feb-07 01:33N 45°38' W 122°44'0 0.0
2016-Feb-07 00:33N 45°38' W 122°44'0 0.0
2016-Feb-06 23:33N 45°38' W 122°44'2 1.9
2016-Feb-06 22:33N 45°39' W 122°46'1 1.1
2016-Feb-06 21:33N 45°40' W 122°46'1 0.5
2016-Feb-06 20:33N 45°39' W 122°46'2 1.5
2016-Feb-06 19:33N 45°38' W 122°44'0 0.0
2016-Feb-06 18:33N 45°38' W 122°44'3 3.3
2016-Feb-06 17:33N 45°35' W 122°45'1 1.3
2016-Feb-06 16:33N 45°34' W 122°44'0 0.4
2016-Feb-06 15:33N 45°34' W 122°43'1 0.6
2016-Feb-06 14:33N 45°34' W 122°44'0 0.0
2016-Feb-06 13:33N 45°34' W 122°44'0 0.0
2016-Feb-06 12:33N 45°34' W 122°44'0 0.0
2016-Feb-06 11:33N 45°34' W 122°44'0 0.0
2016-Feb-06 10:33N 45°34' W 122°44'1 0.6
2016-Feb-06 09:33N 45°34' W 122°44'1 0.6
2016-Feb-06 08:33N 45°34' W 122°44'5 5.1
2016-Feb-06 07:33N 45°39' W 122°45'1 1.0
2016-Feb-06 06:33N 45°38' W 122°44'1 0.8
2016-Feb-06 05:33N 45°39' W 122°45'1 0.6
2016-Feb-06 04:33N 45°38' W 122°44'0 0.1
2016-Feb-06 03:33N 45°38' W 122°44'1 0.8
2016-Feb-06 02:33N 45°38' W 122°43'3 3.0
2016-Feb-06 01:33N 45°37' W 122°48'2 1.9
2016-Feb-06 00:33N 45°36' W 122°46'3 2.9
2016-Feb-05 23:33N 45°34' W 122°44'0 0.0
2016-Feb-05 22:33N 45°34' W 122°44'0 0.0
2016-Feb-05 21:33N 45°34' W 122°44'0 0.0
2016-Feb-05 20:33N 45°34' W 122°44'0 0.0
2016-Feb-05 19:33N 45°34' W 122°44'0 0.0
2016-Feb-05 18:33N 45°34' W 122°44'0 0.0
2016-Feb-05 17:33N 45°34' W 122°44'0 0.0
2016-Feb-05 16:33N 45°34' W 122°44'0 0.0
2016-Feb-05 15:33N 45°34' W 122°44'3 2.9
2016-Feb-05 14:33N 45°36' W 122°47'1 1.4
2016-Feb-05 13:33N 45°37' W 122°47'2 2.2
2016-Feb-05 12:34N 45°39' W 122°45'0 0.0
2016-Feb-05 11:33N 45°39' W 122°45'0 0.0
2016-Feb-05 10:33N 45°39' W 122°45'0 0.0
2016-Feb-05 09:33N 45°39' W 122°45'0 0.0
2016-Feb-05 08:33N 45°39' W 122°45'0 0.0
2016-Feb-05 07:33N 45°39' W 122°45'0 0.0
2016-Feb-05 06:33N 45°39' W 122°45'2 1.6
2016-Feb-05 05:33N 45°38' W 122°43'0 0.0
2016-Feb-05 04:33N 45°38' W 122°43'0 0.0
2016-Feb-05 03:33N 45°38' W 122°43'0 0.2
2016-Feb-05 02:33N 45°38' W 122°43'5 4.8
2016-Feb-05 01:33N 45°34' W 122°44'3 3.0
2016-Feb-05 00:33N 45°32' W 122°40'2 2.1
2016-Feb-04 23:33N 45°33' W 122°42'6 5.7
2016-Feb-04 22:33N 45°39' W 122°44'1 0.6
2016-Feb-04 21:33N 45°38' W 122°43'1 1.2
2016-Feb-04 20:33N 45°39' W 122°45'1 0.8
2016-Feb-04 19:33N 45°39' W 122°46'6 5.9
2016-Feb-04 18:33N 45°34' W 122°43'1 0.9
2016-Feb-04 17:33N 45°34' W 122°44'1 0.6
2016-Feb-04 16:33N 45°34' W 122°43'0 0.0
2016-Feb-04 15:33N 45°34' W 122°43'0 0.3
2016-Feb-04 14:33N 45°34' W 122°44'0 0.0
2016-Feb-04 13:33N 45°34' W 122°44'0 0.0
2016-Feb-04 12:33N 45°34' W 122°44'0 0.0
2016-Feb-04 11:33N 45°34' W 122°44'0 0.0
2016-Feb-04 10:33N 45°34' W 122°44'0 0.0
2016-Feb-04 09:33N 45°34' W 122°44'0 0.0
2016-Feb-04 08:33N 45°34' W 122°44'0 0.4
2016-Feb-04 07:33N 45°34' W 122°44'4 4.5
2016-Feb-04 06:33N 45°38' W 122°43'1 0.7
2016-Feb-04 05:33N 45°39' W 122°44'1 0.9
2016-Feb-04 04:33N 45°39' W 122°45'2 2.3
2016-Feb-04 03:34N 45°37' W 122°47'4 3.9
2016-Feb-04 02:33N 45°34' W 122°44'1 0.6
2016-Feb-04 01:33N 45°34' W 122°44'1 0.1
2016-Feb-03 17:33N 45°34' W 122°44'0 0.0
2016-Feb-03 16:33N 45°34' W 122°44'2 1.6
2016-Feb-03 15:33N 45°33' W 122°42'0 0.1
2016-Feb-03 14:33N 45°33' W 122°42'3 3.1
2016-Feb-03 13:33N 45°35' W 122°45'4 3.8
2016-Feb-03 12:33N 45°39' W 122°45'0 0.1
2016-Feb-03 11:33N 45°39' W 122°45'0 0.0
2016-Feb-03 10:33N 45°39' W 122°45'0 0.0
2016-Feb-03 09:33N 45°39' W 122°45'0 0.0
2016-Feb-03 08:33N 45°39' W 122°45'2 2.3
2016-Feb-03 07:33N 45°38' W 122°42'3 2.6
2016-Feb-03 06:33N 45°39' W 122°45'0 0.0
2016-Feb-03 05:33N 45°39' W 122°45'0 0.0
2016-Feb-03 04:33N 45°39' W 122°45'0 0.0
2016-Feb-03 03:33N 45°39' W 122°45'0 0.0
2016-Feb-03 02:33N 45°39' W 122°45'3 2.9
2016-Feb-03 01:32N 45°36' W 122°46'0 0.1
2016-Feb-03 00:34N 45°36' W 122°46'0 0.0
2016-Feb-02 23:33N 45°36' W 122°46'0 0.0
2016-Feb-02 22:33N 45°36' W 122°46'0 0.3
2016-Feb-02 21:33N 45°35' W 122°46'5 5.2
2016-Feb-02 20:33N 45°32' W 122°41'3 2.6
2016-Feb-02 19:33N 45°34' W 122°43'8 8.3
2016-Feb-02 18:33N 45°42' W 122°46'1010.2
2016-Feb-02 17:33N 45°52' W 122°47'10 9.8
2016-Feb-02 16:34N 46°01' W 122°52'6 5.7
2016-Feb-02 15:33N 46°06' W 122°56'0 0.1
2016-Feb-02 14:33N 46°06' W 122°56'0 0.0
2016-Feb-02 13:33N 46°06' W 122°56'0 0.0
2016-Feb-02 12:33N 46°06' W 122°56'0 0.2
2016-Feb-02 11:33N 46°06' W 122°57'1 0.8
2016-Feb-02 10:33N 46°05' W 122°56'0 0.0
2016-Feb-02 09:33N 46°05' W 122°56'0 0.0
2016-Feb-02 08:33N 46°05' W 122°56'0 0.0
2016-Feb-02 07:34N 46°05' W 122°56'0 0.0
2016-Feb-02 06:33N 46°05' W 122°56'3 3.3
2016-Feb-02 05:33N 46°03' W 122°53'4 4.0
2016-Feb-02 04:33N 45°59' W 122°50'0 0.1
2016-Feb-02 03:33N 45°59' W 122°50'0 0.0
2016-Feb-02 02:33N 45°59' W 122°50'2 1.6
2016-Feb-02 01:33N 45°58' W 122°49'1312.9
2016-Feb-02 00:33N 45°45' W 122°46'7 6.6
2016-Feb-01 23:34N 45°39' W 122°44'1 0.8
2016-Feb-01 22:33N 45°38' W 122°43'4 3.6
2016-Feb-01 21:33N 45°36' W 122°47'3 2.8
2016-Feb-01 20:33N 45°34' W 122°44'3 3.0
2016-Feb-01 19:33N 45°32' W 122°41'3 2.7
2016-Feb-01 18:33N 45°34' W 122°44'1 0.8
2016-Feb-01 17:33N 45°34' W 122°44'5 5.3
2016-Feb-01 16:33N 45°39' W 122°46'1 1.2
2016-Feb-01 15:33N 45°41' W 122°46'1 0.6
2016-Feb-01 14:33N 45°40' W 122°46'4 3.8
2016-Feb-01 13:33N 45°38' W 122°42'3 2.6
2016-Feb-01 12:32N 45°39' W 122°45'0 0.0
2016-Feb-01 11:33N 45°39' W 122°45'0 0.0
2016-Feb-01 10:33N 45°39' W 122°45'0 0.0
2016-Feb-01 09:33N 45°39' W 122°45'0 0.0
2016-Feb-01 08:33N 45°39' W 122°45'0 0.0
2016-Feb-01 07:34N 45°39' W 122°45'0 0.0
2016-Feb-01 06:34N 45°39' W 122°45'0 0.0
2016-Feb-01 05:33N 45°39' W 122°45'0 0.0
2016-Feb-01 04:33N 45°39' W 122°45'2 1.5
2016-Feb-01 03:33N 45°38' W 122°43'1 0.8
2016-Feb-01 02:33N 45°39' W 122°44'1 1.3
2016-Feb-01 01:33N 45°39' W 122°46'6 5.8
2016-Feb-01 00:33N 45°34' W 122°44'0 0.0
2016-Jan-31 23:33N 45°34' W 122°44'3 3.0
2016-Jan-31 22:33N 45°36' W 122°47'1 1.1
2016-Jan-31 21:33N 45°37' W 122°47'0 0.0
2016-Jan-31 20:33N 45°37' W 122°47'0 0.0
2016-Jan-31 19:33N 45°37' W 122°47'1 1.3
2016-Jan-31 18:33N 45°38' W 122°47'7 6.5
2016-Jan-31 17:33N 45°44' W 122°46'9 8.9
2016-Jan-31 16:33N 45°53' W 122°48'8 8.4
2016-Jan-31 15:33N 46°01' W 122°52'1 0.6
2016-Jan-31 14:33N 46°02' W 122°52'0 0.0
2016-Jan-31 13:33N 46°02' W 122°52'0 0.0
2016-Jan-31 12:34N 46°02' W 122°52'0 0.0
2016-Jan-31 11:33N 46°02' W 122°52'0 0.0
2016-Jan-31 10:34N 46°02' W 122°52'0 0.0
2016-Jan-31 09:33N 46°02' W 122°52'0 0.0
2016-Jan-31 08:33N 46°02' W 122°52'0 0.0
2016-Jan-31 07:33N 46°02' W 122°52'0 0.0
2016-Jan-31 06:33N 46°02' W 122°52'0 0.0
2016-Jan-31 05:33N 46°02' W 122°52'1 1.1
2016-Jan-31 04:34N 46°03' W 122°53'1 0.6
2016-Jan-31 03:33N 46°03' W 122°53'2 1.8
2016-Jan-31 02:33N 46°02' W 122°52'0 0.0
2016-Jan-31 01:33N 46°02' W 122°52'  
Track history (hours):
 
Tides and Currents Weather Stations Pressure Air Temp Water Temp Dewpoint Dewpoint Depression Visibility Wind Speed Wind Dir Waves Ship Positions

Sommer S

Owner: Shaver Transportation Company, Portland, OR. More information available from US FCC via Universal Licensing System and Coast Guard Vessel Documentation Center.

Last reported at 2016-Feb-10 00:33 UTC. Time now 2016-Feb-10 00:46 UTC.
Position N 46°06' W 122°57'.

Length 25 m.

Type: Tug. MMSI: 367530080.

Date/timePositionNaut miles runAvg speedWind from/ knotsBaromVisibWave heightAir tempDewpointWater temp
2016-Feb-10 00:33N 46°06' W 122°57'0 0.0
2016-Feb-09 23:33N 46°06' W 122°57'0 0.0
2016-Feb-09 22:33N 46°06' W 122°57'0 0.0
2016-Feb-09 21:33N 46°06' W 122°57'1 1.4
2016-Feb-09 20:33N 46°07' W 122°59'1 0.5
2016-Feb-09 19:33N 46°07' W 122°59'1 1.5
2016-Feb-09 18:32N 46°06' W 122°58'2 1.6
2016-Feb-09 17:33N 46°05' W 122°56'1 1.2
2016-Feb-09 16:33N 46°05' W 122°54'7 6.8
2016-Feb-09 15:33N 45°59' W 122°50'0 0.0
2016-Feb-09 14:33N 45°59' W 122°50'0 0.2
2016-Feb-09 13:33N 45°59' W 122°50'4 4.0
2016-Feb-09 12:33N 45°55' W 122°48'1212.1
2016-Feb-09 11:33N 45°43' W 122°46'6 6.2
2016-Feb-09 10:33N 45°38' W 122°42'2 2.2
2016-Feb-09 09:33N 45°39' W 122°45'0 0.0
2016-Feb-09 08:33N 45°39' W 122°45'0 0.0
2016-Feb-09 07:33N 45°39' W 122°45'0 0.0
2016-Feb-09 06:33N 45°39' W 122°45'0 0.0
2016-Feb-09 05:33N 45°39' W 122°45'0 0.0
2016-Feb-09 04:31N 45°39' W 122°45'0 0.0
2016-Feb-09 03:33N 45°39' W 122°45'2 2.0
2016-Feb-09 02:33N 45°38' W 122°42'0 0.1
2016-Feb-09 01:33N 45°38' W 122°42'1 1.3
2016-Feb-09 00:33N 45°39' W 122°44'0 0.2
2016-Feb-08 23:33N 45°38' W 122°44'2 1.6
2016-Feb-08 22:33N 45°39' W 122°45'4 3.6
2016-Feb-08 21:33N 45°36' W 122°46'3 2.7
2016-Feb-08 20:32N 45°34' W 122°44'0 0.0
2016-Feb-08 19:33N 45°34' W 122°44'0 0.0
2016-Feb-08 18:33N 45°34' W 122°44'0 0.4
2016-Feb-08 17:33N 45°34' W 122°43'0 0.4
2016-Feb-08 16:33N 45°34' W 122°43'3 2.8
2016-Feb-08 15:33N 45°32' W 122°40'3 3.0
2016-Feb-08 14:33N 45°34' W 122°44'3 3.1
2016-Feb-08 13:33N 45°36' W 122°47'1110.7
2016-Feb-08 12:33N 45°47' W 122°46'1110.9
2016-Feb-08 11:33N 45°57' W 122°49'5 4.8
2016-Feb-08 10:33N 46°02' W 122°52'0 0.3
2016-Feb-08 09:33N 46°02' W 122°52'0 0.5
2016-Feb-08 08:33N 46°01' W 122°52'1 1.5
2016-Feb-08 07:33N 46°03' W 122°53'0 0.0
2016-Feb-08 06:33N 46°03' W 122°53'4 4.0
2016-Feb-08 05:33N 45°59' W 122°50'0 0.1
2016-Feb-08 04:33N 45°59' W 122°50'0 0.0
2016-Feb-08 03:33N 45°59' W 122°50'0 0.0
2016-Feb-08 02:33N 45°59' W 122°50'0 0.0
2016-Feb-08 01:33N 45°59' W 122°50'0 0.0
2016-Feb-08 00:33N 45°59' W 122°50'0 0.0
2016-Feb-07 23:33N 45°59' W 122°50'0 0.0
2016-Feb-07 22:33N 45°59' W 122°50'0 0.0
2016-Feb-07 21:32N 45°59' W 122°50'0 0.0
2016-Feb-07 20:33N 45°59' W 122°50'0 0.0
2016-Feb-07 19:33N 45°59' W 122°50'0 0.0
2016-Feb-07 18:33N 45°59' W 122°50'0 0.0
2016-Feb-07 17:33N 45°59' W 122°50'0 0.2
2016-Feb-07 16:33N 45°59' W 122°50'0 0.1
2016-Feb-07 15:33N 45°59' W 122°50'0 0.0
2016-Feb-07 14:33N 45°59' W 122°50'0 0.0
2016-Feb-07 13:33N 45°59' W 122°50'0 0.0
2016-Feb-07 12:33N 45°59' W 122°50'0 0.0
2016-Feb-07 11:33N 45°59' W 122°50'0 0.0
2016-Feb-07 10:33N 45°59' W 122°50'0 0.0
2016-Feb-07 09:33N 45°59' W 122°50'0 0.0
2016-Feb-07 08:33N 45°59' W 122°50'0 0.0
2016-Feb-07 07:33N 45°59' W 122°50'0 0.0
2016-Feb-07 06:33N 45°59' W 122°50'9 9.4
2016-Feb-07 05:33N 45°50' W 122°48'1111.0
2016-Feb-07 04:33N 45°39' W 122°45'3 2.9
2016-Feb-07 03:33N 45°38' W 122°42'2 1.5
2016-Feb-07 02:33N 45°38' W 122°44'0 0.0
2016-Feb-07 01:33N 45°38' W 122°44'0 0.0
2016-Feb-07 00:33N 45°38' W 122°44'0 0.0
2016-Feb-06 23:33N 45°38' W 122°44'2 1.9
2016-Feb-06 22:33N 45°39' W 122°46'1 1.1
2016-Feb-06 21:33N 45°40' W 122°46'1 0.5
2016-Feb-06 20:33N 45°39' W 122°46'2 1.5
2016-Feb-06 19:33N 45°38' W 122°44'0 0.0
2016-Feb-06 18:33N 45°38' W 122°44'3 3.3
2016-Feb-06 17:33N 45°35' W 122°45'1 1.3
2016-Feb-06 16:33N 45°34' W 122°44'0 0.4
2016-Feb-06 15:33N 45°34' W 122°43'1 0.6
2016-Feb-06 14:33N 45°34' W 122°44'0 0.0
2016-Feb-06 13:33N 45°34' W 122°44'0 0.0
2016-Feb-06 12:33N 45°34' W 122°44'0 0.0
2016-Feb-06 11:33N 45°34' W 122°44'0 0.0
2016-Feb-06 10:33N 45°34' W 122°44'1 0.6
2016-Feb-06 09:33N 45°34' W 122°44'1 0.6
2016-Feb-06 08:33N 45°34' W 122°44'5 5.1
2016-Feb-06 07:33N 45°39' W 122°45'1 1.0
2016-Feb-06 06:33N 45°38' W 122°44'1 0.8
2016-Feb-06 05:33N 45°39' W 122°45'1 0.6
2016-Feb-06 04:33N 45°38' W 122°44'0 0.1
2016-Feb-06 03:33N 45°38' W 122°44'1 0.8
2016-Feb-06 02:33N 45°38' W 122°43'3 3.0
2016-Feb-06 01:33N 45°37' W 122°48'2 1.9
2016-Feb-06 00:33N 45°36' W 122°46'3 2.9
2016-Feb-05 23:33N 45°34' W 122°44'0 0.0
2016-Feb-05 22:33N 45°34' W 122°44'0 0.0
2016-Feb-05 21:33N 45°34' W 122°44'0 0.0
2016-Feb-05 20:33N 45°34' W 122°44'0 0.0
2016-Feb-05 19:33N 45°34' W 122°44'0 0.0
2016-Feb-05 18:33N 45°34' W 122°44'0 0.0
2016-Feb-05 17:33N 45°34' W 122°44'0 0.0
2016-Feb-05 16:33N 45°34' W 122°44'0 0.0
2016-Feb-05 15:33N 45°34' W 122°44'3 2.9
2016-Feb-05 14:33N 45°36' W 122°47'1 1.4
2016-Feb-05 13:33N 45°37' W 122°47'2 2.2
2016-Feb-05 12:34N 45°39' W 122°45'0 0.0
2016-Feb-05 11:33N 45°39' W 122°45'0 0.0
2016-Feb-05 10:33N 45°39' W 122°45'0 0.0
2016-Feb-05 09:33N 45°39' W 122°45'0 0.0
2016-Feb-05 08:33N 45°39' W 122°45'0 0.0
2016-Feb-05 07:33N 45°39' W 122°45'0 0.0
2016-Feb-05 06:33N 45°39' W 122°45'2 1.6
2016-Feb-05 05:33N 45°38' W 122°43'0 0.0
2016-Feb-05 04:33N 45°38' W 122°43'0 0.0
2016-Feb-05 03:33N 45°38' W 122°43'0 0.2
2016-Feb-05 02:33N 45°38' W 122°43'5 4.8
2016-Feb-05 01:33N 45°34' W 122°44'3 3.0
2016-Feb-05 00:33N 45°32' W 122°40'2 2.1
2016-Feb-04 23:33N 45°33' W 122°42'6 5.7
2016-Feb-04 22:33N 45°39' W 122°44'1 0.6
2016-Feb-04 21:33N 45°38' W 122°43'1 1.2
2016-Feb-04 20:33N 45°39' W 122°45'1 0.8
2016-Feb-04 19:33N 45°39' W 122°46'6 5.9
2016-Feb-04 18:33N 45°34' W 122°43'1 0.9
2016-Feb-04 17:33N 45°34' W 122°44'1 0.6
2016-Feb-04 16:33N 45°34' W 122°43'0 0.0
2016-Feb-04 15:33N 45°34' W 122°43'0 0.3
2016-Feb-04 14:33N 45°34' W 122°44'0 0.0
2016-Feb-04 13:33N 45°34' W 122°44'0 0.0
2016-Feb-04 12:33N 45°34' W 122°44'0 0.0
2016-Feb-04 11:33N 45°34' W 122°44'0 0.0
2016-Feb-04 10:33N 45°34' W 122°44'0 0.0
2016-Feb-04 09:33N 45°34' W 122°44'0 0.0
2016-Feb-04 08:33N 45°34' W 122°44'0 0.4
2016-Feb-04 07:33N 45°34' W 122°44'4 4.5
2016-Feb-04 06:33N 45°38' W 122°43'1 0.7
2016-Feb-04 05:33N 45°39' W 122°44'1 0.9
2016-Feb-04 04:33N 45°39' W 122°45'2 2.3
2016-Feb-04 03:34N 45°37' W 122°47'4 3.9
2016-Feb-04 02:33N 45°34' W 122°44'1 0.6
2016-Feb-04 01:33N 45°34' W 122°44'1 0.1
2016-Feb-03 17:33N 45°34' W 122°44'0 0.0
2016-Feb-03 16:33N 45°34' W 122°44'2 1.6
2016-Feb-03 15:33N 45°33' W 122°42'0 0.1
2016-Feb-03 14:33N 45°33' W 122°42'3 3.1
2016-Feb-03 13:33N 45°35' W 122°45'4 3.8
2016-Feb-03 12:33N 45°39' W 122°45'0 0.1
2016-Feb-03 11:33N 45°39' W 122°45'0 0.0
2016-Feb-03 10:33N 45°39' W 122°45'0 0.0
2016-Feb-03 09:33N 45°39' W 122°45'0 0.0
2016-Feb-03 08:33N 45°39' W 122°45'2 2.3
2016-Feb-03 07:33N 45°38' W 122°42'3 2.6
2016-Feb-03 06:33N 45°39' W 122°45'0 0.0
2016-Feb-03 05:33N 45°39' W 122°45'0 0.0
2016-Feb-03 04:33N 45°39' W 122°45'0 0.0
2016-Feb-03 03:33N 45°39' W 122°45'0 0.0
2016-Feb-03 02:33N 45°39' W 122°45'3 2.9
2016-Feb-03 01:32N 45°36' W 122°46'0 0.1
2016-Feb-03 00:34N 45°36' W 122°46'0 0.0
2016-Feb-02 23:33N 45°36' W 122°46'0 0.0
2016-Feb-02 22:33N 45°36' W 122°46'0 0.3
2016-Feb-02 21:33N 45°35' W 122°46'5 5.2
2016-Feb-02 20:33N 45°32' W 122°41'3 2.6
2016-Feb-02 19:33N 45°34' W 122°43'8 8.3
2016-Feb-02 18:33N 45°42' W 122°46'1010.2
2016-Feb-02 17:33N 45°52' W 122°47'10 9.8
2016-Feb-02 16:34N 46°01' W 122°52'6 5.7
2016-Feb-02 15:33N 46°06' W 122°56'0 0.1
2016-Feb-02 14:33N 46°06' W 122°56'0 0.0
2016-Feb-02 13:33N 46°06' W 122°56'0 0.0
2016-Feb-02 12:33N 46°06' W 122°56'0 0.2
2016-Feb-02 11:33N 46°06' W 122°57'1 0.8
2016-Feb-02 10:33N 46°05' W 122°56'0 0.0
2016-Feb-02 09:33N 46°05' W 122°56'0 0.0
2016-Feb-02 08:33N 46°05' W 122°56'0 0.0
2016-Feb-02 07:34N 46°05' W 122°56'0 0.0
2016-Feb-02 06:33N 46°05' W 122°56'3 3.3
2016-Feb-02 05:33N 46°03' W 122°53'4 4.0
2016-Feb-02 04:33N 45°59' W 122°50'0 0.1
2016-Feb-02 03:33N 45°59' W 122°50'0 0.0
2016-Feb-02 02:33N 45°59' W 122°50'2 1.6
2016-Feb-02 01:33N 45°58' W 122°49'1312.9
2016-Feb-02 00:33N 45°45' W 122°46'7 6.6
2016-Feb-01 23:34N 45°39' W 122°44'1 0.8
2016-Feb-01 22:33N 45°38' W 122°43'4 3.6
2016-Feb-01 21:33N 45°36' W 122°47'3 2.8
2016-Feb-01 20:33N 45°34' W 122°44'3 3.0
2016-Feb-01 19:33N 45°32' W 122°41'3 2.7
2016-Feb-01 18:33N 45°34' W 122°44'1 0.8
2016-Feb-01 17:33N 45°34' W 122°44'5 5.3
2016-Feb-01 16:33N 45°39' W 122°46'1 1.2
2016-Feb-01 15:33N 45°41' W 122°46'1 0.6
2016-Feb-01 14:33N 45°40' W 122°46'4 3.8
2016-Feb-01 13:33N 45°38' W 122°42'3 2.6
2016-Feb-01 12:32N 45°39' W 122°45'0 0.0
2016-Feb-01 11:33N 45°39' W 122°45'0 0.0
2016-Feb-01 10:33N 45°39' W 122°45'0 0.0
2016-Feb-01 09:33N 45°39' W 122°45'0 0.0
2016-Feb-01 08:33N 45°39' W 122°45'0 0.0
2016-Feb-01 07:34N 45°39' W 122°45'0 0.0
2016-Feb-01 06:34N 45°39' W 122°45'0 0.0
2016-Feb-01 05:33N 45°39' W 122°45'0 0.0
2016-Feb-01 04:33N 45°39' W 122°45'2 1.5
2016-Feb-01 03:33N 45°38' W 122°43'1 0.8
2016-Feb-01 02:33N 45°39' W 122°44'1 1.3
2016-Feb-01 01:33N 45°39' W 122°46'6 5.8
2016-Feb-01 00:33N 45°34' W 122°44'0 0.0
2016-Jan-31 23:33N 45°34' W 122°44'3 3.0
2016-Jan-31 22:33N 45°36' W 122°47'1 1.1
2016-Jan-31 21:33N 45°37' W 122°47'0 0.0
2016-Jan-31 20:33N 45°37' W 122°47'0 0.0
2016-Jan-31 19:33N 45°37' W 122°47'1 1.3
2016-Jan-31 18:33N 45°38' W 122°47'7 6.5
2016-Jan-31 17:33N 45°44' W 122°46'9 8.9
2016-Jan-31 16:33N 45°53' W 122°48'8 8.4
2016-Jan-31 15:33N 46°01' W 122°52'1 0.6
2016-Jan-31 14:33N 46°02' W 122°52'0 0.0
2016-Jan-31 13:33N 46°02' W 122°52'0 0.0
2016-Jan-31 12:34N 46°02' W 122°52'0 0.0
2016-Jan-31 11:33N 46°02' W 122°52'0 0.0
2016-Jan-31 10:34N 46°02' W 122°52'0 0.0
2016-Jan-31 09:33N 46°02' W 122°52'0 0.0
2016-Jan-31 08:33N 46°02' W 122°52'0 0.0
2016-Jan-31 07:33N 46°02' W 122°52'0 0.0
2016-Jan-31 06:33N 46°02' W 122°52'0 0.0
2016-Jan-31 05:33N 46°02' W 122°52'1 1.1
2016-Jan-31 04:34N 46°03' W 122°53'1 0.6
2016-Jan-31 03:33N 46°03' W 122°53'2 1.8
2016-Jan-31 02:33N 46°02' W 122°52'0 0.0
2016-Jan-31 01:33N 46°02' W 122°52'  

Dump ship's entire track history